createdAt,value
2022-10-05T00:00:17.455Z,24.50
2022-10-05T00:03:10.384Z,21.20
2022-10-05T00:05:36.911Z,22.20
2022-10-05T00:08:23.226Z,23.60
2022-10-05T00:10:50.415Z,26.40
2022-10-05T00:13:27.862Z,23.00
2022-10-05T00:16:18.492Z,22.30
2022-10-05T00:18:51.413Z,22.80
2022-10-05T00:21:23.934Z,21.70
2022-10-05T00:23:51.383Z,21.10
2022-10-05T00:26:24.023Z,24.30
2022-10-05T00:31:23.507Z,19.40
2022-10-05T00:36:16.959Z,23.90
2022-10-05T00:38:43.647Z,18.10
2022-10-05T00:41:10.281Z,16.20
2022-10-05T00:44:16.537Z,16.00
2022-10-05T00:47:27.616Z,19.90
2022-10-05T00:50:10.465Z,17.50
2022-10-05T00:56:06.975Z,17.30
2022-10-05T00:58:58.050Z,17.20
2022-10-05T01:01:55.057Z,17.10
2022-10-05T01:04:31.394Z,14.70
2022-10-05T01:07:25.082Z,11.90
2022-10-05T01:10:01.347Z,10.00
2022-10-05T01:12:46.847Z,9.40
2022-10-05T01:15:37.612Z,10.20
2022-10-05T01:18:42.243Z,9.80
2022-10-05T01:21:19.200Z,9.30
2022-10-05T01:24:00.657Z,9.00
2022-10-05T01:27:01.106Z,8.50
2022-10-05T01:29:36.370Z,8.90
2022-10-05T01:32:39.636Z,9.40
2022-10-05T01:35:22.320Z,9.70
2022-10-05T01:38:00.751Z,11.20
2022-10-05T01:40:34.898Z,9.20
2022-10-05T01:43:24.467Z,10.40
2022-10-05T01:46:08.089Z,10.50
2022-10-05T01:49:04.238Z,10.20
2022-10-05T01:51:47.790Z,9.80
2022-10-05T01:54:39.747Z,9.90
2022-10-05T01:57:36.604Z,10.20
2022-10-05T02:00:10.924Z,8.70
2022-10-05T02:02:52.408Z,8.80
2022-10-05T02:05:29.453Z,8.90
2022-10-05T02:08:07.821Z,8.90
2022-10-05T02:10:41.980Z,9.30
2022-10-05T02:13:40.744Z,9.50
2022-10-05T02:16:27.120Z,9.50
2022-10-05T02:18:59.980Z,9.30
2022-10-05T02:21:27.205Z,8.90
2022-10-05T02:23:57.209Z,9.40
2022-10-05T02:26:24.470Z,9.50
2022-10-05T02:28:58.571Z,8.50
2022-10-05T02:31:48.534Z,9.60
2022-10-05T02:34:28.039Z,9.90
2022-10-05T02:37:17.800Z,9.40
2022-10-05T02:40:33.918Z,9.10
2022-10-05T02:43:26.545Z,9.30
2022-10-05T02:46:09.466Z,9.70
2022-10-05T02:51:27.118Z,9.60
2022-10-05T02:54:38.697Z,9.60
2022-10-05T02:57:29.105Z,9.40
2022-10-05T03:00:06.973Z,10.00
2022-10-05T03:02:39.126Z,8.90
2022-10-05T03:05:37.355Z,9.20
2022-10-05T03:08:20.265Z,9.00
2022-10-05T03:11:10.939Z,9.30
2022-10-05T03:14:02.792Z,9.10
2022-10-05T03:16:56.575Z,8.80
2022-10-05T03:20:00.180Z,9.70
2022-10-05T03:23:01.538Z,8.90
2022-10-05T03:26:01.736Z,9.30
2022-10-05T03:29:03.848Z,9.90
2022-10-05T03:31:50.909Z,9.60
2022-10-05T03:34:28.262Z,8.50
2022-10-05T03:37:10.274Z,9.20
2022-10-05T03:40:15.067Z,10.50
2022-10-05T03:43:33.959Z,9.60
2022-10-05T03:46:09.811Z,8.90
2022-10-05T03:49:13.696Z,8.70
2022-10-05T03:51:48.040Z,8.70
2022-10-05T03:54:35.916Z,9.70
2022-10-05T03:57:20.585Z,8.60
2022-10-05T04:00:26.944Z,10.00
2022-10-05T04:03:09.670Z,9.20
2022-10-05T04:05:52.597Z,9.10
2022-10-05T04:08:48.796Z,8.80
2022-10-05T04:11:23.740Z,8.30
2022-10-05T04:14:13.930Z,8.80
2022-10-05T04:16:45.313Z,8.60
2022-10-05T04:19:27.499Z,8.80
2022-10-05T04:22:02.642Z,9.00
2022-10-05T04:24:39.399Z,8.70
2022-10-05T04:27:21.264Z,10.10
2022-10-05T04:30:15.581Z,8.40
2022-10-05T04:32:56.855Z,8.90
2022-10-05T04:35:35.209Z,8.60
2022-10-05T04:38:46.385Z,10.10
2022-10-05T04:41:55.524Z,9.00
2022-10-05T04:44:48.309Z,10.70
2022-10-05T04:48:13.330Z,12.80
2022-10-05T04:50:52.459Z,11.90
2022-10-05T04:53:36.120Z,11.00
2022-10-05T04:56:17.847Z,9.80
2022-10-05T04:59:24.423Z,10.00
2022-10-05T05:02:06.050Z,8.90
2022-10-05T05:04:54.400Z,9.20
2022-10-05T05:07:35.804Z,9.70
2022-10-05T05:10:55.623Z,10.00
2022-10-05T05:13:48.742Z,10.10
2022-10-05T05:19:44.265Z,12.00
2022-10-05T05:22:26.071Z,16.70
2022-10-05T05:25:44.552Z,19.20
2022-10-05T05:28:34.384Z,17.00
2022-10-05T05:31:30.774Z,16.10
2022-10-05T05:34:28.814Z,11.90
2022-10-05T05:37:31.136Z,11.70
2022-10-05T05:40:14.572Z,11.50
2022-10-05T05:43:00.218Z,10.10
2022-10-05T05:45:42.051Z,10.80
2022-10-05T05:48:34.699Z,11.40
2022-10-05T05:51:17.244Z,10.30
2022-10-05T05:53:54.556Z,10.10
2022-10-05T05:56:39.063Z,9.70
2022-10-05T05:59:22.528Z,9.90
2022-10-05T06:01:55.657Z,8.90
2022-10-05T06:04:41.394Z,8.80
2022-10-05T06:07:16.097Z,9.20
2022-10-05T06:10:21.139Z,8.40
2022-10-05T06:12:50.220Z,9.40
2022-10-05T06:15:27.506Z,7.90
2022-10-05T06:17:58.212Z,8.30
2022-10-05T06:20:36.429Z,8.40
2022-10-05T06:23:11.745Z,8.90
2022-10-05T06:25:57.838Z,8.80
2022-10-05T06:28:24.974Z,8.70
2022-10-05T06:31:26.196Z,8.70
2022-10-05T06:34:49.883Z,8.50
2022-10-05T06:37:59.286Z,8.30
2022-10-05T06:40:45.204Z,8.40
2022-10-05T06:43:29.975Z,8.60
2022-10-05T06:46:35.662Z,8.80
2022-10-05T06:49:18.545Z,9.20
2022-10-05T06:54:47.853Z,8.10
2022-10-05T06:57:36.145Z,7.00
2022-10-05T07:00:19.853Z,8.20
2022-10-05T07:02:55.649Z,7.30
2022-10-05T07:06:19.869Z,8.10
2022-10-05T07:09:35.842Z,8.60
2022-10-05T07:12:29.705Z,7.70
2022-10-05T07:15:23.626Z,7.00
2022-10-05T07:18:15.163Z,7.50
2022-10-05T07:21:38.915Z,7.60
2022-10-05T07:27:07.500Z,7.20
2022-10-05T07:30:05.316Z,7.40
2022-10-05T07:32:52.197Z,7.00
2022-10-05T07:35:47.704Z,7.40
2022-10-05T07:38:32.127Z,6.50
2022-10-05T07:41:10.868Z,6.50
2022-10-05T07:44:01.693Z,6.20
2022-10-05T07:47:00.239Z,5.60
2022-10-05T07:49:46.394Z,6.30
2022-10-05T07:52:34.877Z,5.90
2022-10-05T07:55:19.252Z,5.70
2022-10-05T07:58:12.552Z,5.50
2022-10-05T08:01:00.051Z,5.30
2022-10-05T08:03:51.764Z,5.40
2022-10-05T08:06:57.793Z,6.10
2022-10-05T08:09:52.132Z,5.00
2022-10-05T08:12:50.413Z,4.90
2022-10-05T08:15:25.213Z,6.70
2022-10-05T08:18:21.533Z,5.20
2022-10-05T08:20:58.446Z,5.20
2022-10-05T08:23:51.118Z,4.80
2022-10-05T08:26:40.857Z,4.50
2022-10-05T08:29:22.929Z,5.00
2022-10-05T08:31:56.582Z,4.40
2022-10-05T08:34:39.248Z,5.20
2022-10-05T08:37:19.671Z,4.70
2022-10-05T08:40:39.064Z,4.90
2022-10-05T08:43:45.388Z,4.80
2022-10-05T08:46:48.388Z,5.20
2022-10-05T08:53:16.289Z,4.90
2022-10-05T08:56:04.017Z,4.90
2022-10-05T08:58:51.693Z,5.40
2022-10-05T09:01:37.272Z,4.60
2022-10-05T09:04:32.791Z,4.50
2022-10-05T09:07:10.107Z,4.60
2022-10-05T09:09:52.101Z,4.10
2022-10-05T09:12:43.659Z,5.10
2022-10-05T09:15:46.883Z,4.10
2022-10-05T09:18:19.194Z,4.70
2022-10-05T09:20:56.495Z,4.30
2022-10-05T09:23:47.369Z,4.50
2022-10-05T09:26:46.880Z,4.00
2022-10-05T09:30:09.450Z,4.10
2022-10-05T09:33:34.251Z,3.60
2022-10-05T09:36:25.375Z,4.20
2022-10-05T09:39:21.412Z,4.00
2022-10-05T09:42:33.991Z,3.60
2022-10-05T09:45:39.922Z,3.90
2022-10-05T09:48:28.903Z,3.80
2022-10-05T09:51:22.840Z,3.50
2022-10-05T09:54:33.778Z,3.60
2022-10-05T09:57:38.771Z,3.30
2022-10-05T10:00:34.758Z,3.70
2022-10-05T10:03:14.397Z,3.70
2022-10-05T10:06:30.121Z,3.40
2022-10-05T10:09:26.312Z,3.30
2022-10-05T10:12:28.421Z,3.80
2022-10-05T10:15:26.335Z,2.90
2022-10-05T10:18:27.723Z,3.50
2022-10-05T10:21:28.858Z,3.10
2022-10-05T10:24:22.398Z,3.00
2022-10-05T10:27:19.822Z,2.70
2022-10-05T10:30:26.320Z,2.90
2022-10-05T10:33:12.689Z,2.90
2022-10-05T10:36:00.503Z,3.10
2022-10-05T10:39:10.831Z,3.00
2022-10-05T10:42:15.980Z,2.80
2022-10-05T10:45:30.388Z,2.40
2022-10-05T10:48:24.885Z,2.40
2022-10-05T10:51:36.157Z,2.90
2022-10-05T10:54:39.045Z,2.80
2022-10-05T10:57:14.855Z,2.30
2022-10-05T11:00:15.539Z,2.80
2022-10-05T11:03:18.513Z,3.40
2022-10-05T11:08:40.357Z,2.80
2022-10-05T11:11:17.275Z,2.80
2022-10-05T11:14:25.052Z,3.00
2022-10-05T11:17:37.966Z,2.90
2022-10-05T11:21:00.127Z,2.90
2022-10-05T11:24:23.393Z,2.80
2022-10-05T11:27:33.458Z,2.80
2022-10-05T11:30:27.693Z,2.60
2022-10-05T11:33:47.658Z,2.70
2022-10-05T11:36:41.815Z,2.60
2022-10-05T11:39:39.577Z,2.40
2022-10-05T11:42:27.898Z,2.40
2022-10-05T11:45:25.216Z,2.40
2022-10-05T11:48:34.269Z,2.10
2022-10-05T11:51:14.235Z,2.40
2022-10-05T11:54:17.028Z,2.30
2022-10-05T11:57:00.539Z,2.30
2022-10-05T11:59:36.337Z,2.50
2022-10-05T12:02:43.620Z,2.70
2022-10-05T12:05:45.972Z,2.90
2022-10-05T12:08:32.382Z,2.30
2022-10-05T12:11:49.009Z,2.20
2022-10-05T12:14:28.119Z,2.50
2022-10-05T12:17:17.399Z,2.50
2022-10-05T12:19:47.900Z,2.40
2022-10-05T12:22:41.235Z,2.60
2022-10-05T12:25:35.139Z,3.00
2022-10-05T12:28:09.326Z,2.20
2022-10-05T12:31:30.199Z,2.40
2022-10-05T12:34:07.924Z,2.30
2022-10-05T12:37:04.827Z,2.10
2022-10-05T12:39:50.673Z,2.70
2022-10-05T12:42:49.915Z,2.40
2022-10-05T12:45:42.955Z,2.10
2022-10-05T12:48:21.909Z,2.60
2022-10-05T12:51:26.101Z,2.80
2022-10-05T12:54:23.314Z,2.50
2022-10-05T12:56:55.561Z,2.70
2022-10-05T13:00:23.416Z,2.60
2022-10-05T13:02:57.151Z,3.30
2022-10-05T13:05:47.051Z,2.60
2022-10-05T13:08:50.935Z,2.60
2022-10-05T13:11:35.899Z,2.80
2022-10-05T13:14:17.619Z,2.50
2022-10-05T13:17:10.746Z,2.90
2022-10-05T13:19:46.401Z,2.70
2022-10-05T13:22:49.453Z,2.50
2022-10-05T13:25:26.125Z,2.30
2022-10-05T13:28:01.728Z,2.50
2022-10-05T13:30:28.863Z,2.60
2022-10-05T13:33:03.861Z,2.70
2022-10-05T13:36:02.494Z,2.50
2022-10-05T13:38:58.364Z,2.50
2022-10-05T13:41:54.525Z,2.30
2022-10-05T13:44:58.354Z,2.40
2022-10-05T13:48:03.519Z,2.60
2022-10-05T13:50:42.331Z,2.30
2022-10-05T13:53:36.605Z,2.60
2022-10-05T13:56:27.913Z,2.40
2022-10-05T13:59:07.265Z,2.00
2022-10-05T14:01:49.803Z,2.10
2022-10-05T14:06:48.069Z,1.90
2022-10-05T14:09:24.917Z,2.00
2022-10-05T14:12:13.292Z,2.30
2022-10-05T14:15:22.986Z,2.60
2022-10-05T14:17:52.099Z,2.00
2022-10-05T14:20:27.282Z,2.10
2022-10-05T14:23:14.736Z,3.00
2022-10-05T14:25:53.376Z,8.30
2022-10-05T14:28:32.625Z,13.00
2022-10-05T14:31:39.684Z,6.40
2022-10-05T14:34:36.068Z,3.20
2022-10-05T14:37:28.366Z,2.10
2022-10-05T14:40:22.647Z,2.00
2022-10-05T14:43:23.219Z,2.20
2022-10-05T14:46:05.657Z,2.60
2022-10-05T14:49:17.387Z,2.40
2022-10-05T14:51:52.718Z,2.30
2022-10-05T14:54:49.075Z,2.10
2022-10-05T14:57:39.724Z,2.50
2022-10-05T15:00:20.285Z,2.50
2022-10-05T15:03:03.958Z,2.40
2022-10-05T15:05:45.300Z,2.20
2022-10-05T15:08:18.064Z,2.30
2022-10-05T15:11:04.774Z,2.50
2022-10-05T15:13:41.057Z,2.80
2022-10-05T15:16:18.421Z,2.20
2022-10-05T15:19:03.885Z,2.50
2022-10-05T15:22:05.143Z,2.50
2022-10-05T15:24:43.322Z,2.60
2022-10-05T15:27:30.771Z,2.80
2022-10-05T15:30:24.540Z,2.70
2022-10-05T15:33:32.503Z,2.60
2022-10-05T15:36:07.623Z,2.40
2022-10-05T15:39:13.031Z,3.70
2022-10-05T15:42:01.870Z,3.00
2022-10-05T15:44:51.629Z,3.30
2022-10-05T15:47:41.987Z,3.00
2022-10-05T15:50:22.571Z,3.30
2022-10-05T15:53:02.291Z,2.80
2022-10-05T15:55:34.738Z,3.10
2022-10-05T15:58:10.897Z,2.80
2022-10-05T16:01:12.427Z,3.50
2022-10-05T16:04:39.005Z,3.30
2022-10-05T16:07:34.139Z,4.50
2022-10-05T16:10:03.804Z,7.30
2022-10-05T16:12:45.163Z,9.30
2022-10-05T16:15:25.969Z,7.50
2022-10-05T16:18:31.933Z,10.30
2022-10-05T16:21:29.064Z,14.00
2022-10-05T16:24:08.919Z,12.80
2022-10-05T16:26:55.928Z,11.70
2022-10-05T16:29:39.177Z,10.70
2022-10-05T16:32:09.810Z,9.70
2022-10-05T16:34:55.670Z,9.10
2022-10-05T16:37:44.766Z,8.70
2022-10-05T16:40:27.942Z,7.00
2022-10-05T16:42:57.859Z,7.40
2022-10-05T16:45:52.531Z,6.50
2022-10-05T16:48:26.801Z,5.40
2022-10-05T16:51:31.615Z,4.80
2022-10-05T16:54:38.226Z,5.00
2022-10-05T16:57:19.112Z,4.70
2022-10-05T17:00:23.133Z,4.70
2022-10-05T17:03:16.222Z,5.50
2022-10-05T17:05:55.195Z,5.50
2022-10-05T17:08:58.848Z,6.60
2022-10-05T17:12:07.731Z,7.00
2022-10-05T17:15:19.176Z,7.20
2022-10-05T17:18:16.756Z,6.60
2022-10-05T17:21:20.879Z,8.40
2022-10-05T17:23:58.846Z,9.60
2022-10-05T17:26:43.464Z,10.00
2022-10-05T17:29:27.286Z,9.50
2022-10-05T17:32:06.099Z,11.30
2022-10-05T17:34:36.575Z,11.10
2022-10-05T17:37:30.037Z,11.10
2022-10-05T17:39:58.454Z,10.50
2022-10-05T17:42:32.126Z,11.10
2022-10-05T17:45:11.769Z,10.90
2022-10-05T17:48:09.801Z,11.80
2022-10-05T17:51:00.763Z,11.50
2022-10-05T17:53:52.379Z,11.80
2022-10-05T17:56:24.220Z,13.40
2022-10-05T17:59:01.606Z,14.70
2022-10-05T18:01:39.586Z,15.10
2022-10-05T18:04:12.725Z,14.30
2022-10-05T18:07:02.588Z,15.40
2022-10-05T18:09:33.541Z,16.30
2022-10-05T18:12:18.861Z,14.90
2022-10-05T18:15:23.758Z,15.30
2022-10-05T18:18:32.420Z,15.80
2022-10-05T18:22:02.970Z,14.00
2022-10-05T18:24:52.502Z,13.70
2022-10-05T18:27:49.846Z,14.00
2022-10-05T18:30:23.038Z,14.20
2022-10-05T18:33:31.602Z,13.20
2022-10-05T18:36:23.146Z,12.20
2022-10-05T18:39:07.927Z,13.10
2022-10-05T18:42:06.615Z,11.90
2022-10-05T18:44:46.124Z,21.40
2022-10-05T18:47:35.699Z,21.40
2022-10-05T18:50:25.757Z,15.50
2022-10-05T18:53:13.820Z,15.40
2022-10-05T18:55:45.421Z,12.30
2022-10-05T18:58:51.062Z,12.30
2022-10-05T19:01:45.613Z,11.80
2022-10-05T19:04:40.250Z,10.40
2022-10-05T19:07:38.646Z,10.10
2022-10-05T19:10:25.365Z,9.80
2022-10-05T19:13:10.473Z,9.20
2022-10-05T19:16:07.812Z,9.60
2022-10-05T19:19:05.272Z,31.60
2022-10-05T19:21:41.144Z,31.90
2022-10-05T19:24:49.140Z,31.10
2022-10-05T19:27:46.334Z,17.30
2022-10-05T19:30:22.600Z,15.50
2022-10-05T19:33:06.461Z,10.60
2022-10-05T19:36:04.558Z,9.60
2022-10-05T19:39:06.676Z,8.40
2022-10-05T19:41:36.578Z,8.40
2022-10-05T19:49:48.115Z,7.60
2022-10-05T19:52:24.850Z,10.40
2022-10-05T19:55:23.690Z,11.80
2022-10-05T19:57:53.631Z,12.60
2022-10-05T20:00:32.545Z,11.90
2022-10-05T20:03:15.911Z,12.80
2022-10-05T20:05:42.580Z,13.90
2022-10-05T20:08:18.951Z,14.00
2022-10-05T20:11:06.413Z,13.40
2022-10-05T20:13:34.793Z,13.70
2022-10-05T20:16:35.245Z,11.20
2022-10-05T20:19:35.121Z,10.80
2022-10-05T20:22:29.450Z,15.20
2022-10-05T20:25:01.671Z,15.80
2022-10-05T20:27:37.183Z,12.10
2022-10-05T20:30:05.568Z,13.70
2022-10-05T20:32:32.279Z,11.70
2022-10-05T20:35:00.799Z,12.10
2022-10-05T20:37:27.595Z,11.40
2022-10-05T20:39:54.608Z,13.60
2022-10-05T20:42:23.540Z,14.00
2022-10-05T20:44:56.528Z,13.80
2022-10-05T20:47:25.136Z,13.20
2022-10-05T20:49:54.129Z,11.60
2022-10-05T20:52:22.490Z,10.40
2022-10-05T20:54:53.072Z,10.50
2022-10-05T20:57:24.101Z,10.40
2022-10-05T20:59:51.209Z,10.60
2022-10-05T21:02:19.113Z,13.70
2022-10-05T21:04:47.382Z,15.90
2022-10-05T21:07:20.522Z,16.30
2022-10-05T21:09:47.167Z,14.10
2022-10-05T21:12:15.963Z,14.90
2022-10-05T21:14:42.680Z,17.30
2022-10-05T21:17:11.267Z,15.10
2022-10-05T21:19:40.858Z,13.30
2022-10-05T21:22:09.572Z,9.70
2022-10-05T21:24:38.155Z,9.00
2022-10-05T21:27:05.162Z,8.90
2022-10-05T21:29:32.707Z,7.90
2022-10-05T21:31:59.811Z,8.70
2022-10-05T21:34:28.039Z,9.40
2022-10-05T21:36:54.819Z,9.60
2022-10-05T21:39:21.352Z,8.30
2022-10-05T21:41:49.747Z,8.90
2022-10-05T21:44:18.058Z,8.90
2022-10-05T21:46:44.859Z,9.40
2022-10-05T21:49:19.510Z,7.80
2022-10-05T21:51:46.715Z,8.00
2022-10-05T21:54:17.159Z,7.80
2022-10-05T21:56:59.443Z,9.70
2022-10-05T21:59:30.987Z,11.40
2022-10-05T22:01:58.149Z,11.90
2022-10-05T22:04:25.231Z,10.50
2022-10-05T22:06:52.544Z,8.20
2022-10-05T22:09:19.728Z,7.10
2022-10-05T22:11:50.409Z,7.80
2022-10-05T22:14:17.224Z,7.80
2022-10-05T22:16:44.656Z,7.20
2022-10-05T22:19:16.311Z,7.60
2022-10-05T22:21:43.634Z,7.50
2022-10-05T22:24:12.933Z,7.20
2022-10-05T22:26:42.222Z,6.10
2022-10-05T22:29:09.357Z,6.90
2022-10-05T22:31:36.781Z,7.10
2022-10-05T22:34:03.892Z,6.30
2022-10-05T22:36:30.495Z,6.80
2022-10-05T22:38:56.979Z,6.90
2022-10-05T22:41:23.777Z,7.10
2022-10-05T22:43:53.588Z,7.50
2022-10-05T22:46:24.382Z,6.50
2022-10-05T22:48:51.415Z,6.60
2022-10-05T22:51:21.099Z,6.50
2022-10-05T22:53:49.683Z,6.80
2022-10-05T22:56:19.026Z,6.20
2022-10-05T22:58:46.793Z,7.10
2022-10-05T23:01:16.702Z,6.40
2022-10-05T23:03:44.054Z,6.20
2022-10-05T23:06:19.854Z,6.80
2022-10-05T23:08:47.021Z,6.20
2022-10-05T23:11:23.154Z,7.40
2022-10-05T23:13:51.747Z,7.00
2022-10-05T23:16:22.400Z,6.70
2022-10-05T23:18:53.171Z,6.90
2022-10-05T23:21:23.310Z,6.80
2022-10-05T23:23:54.776Z,5.70
2022-10-05T23:26:27.464Z,6.20
2022-10-05T23:28:54.094Z,6.70
2022-10-05T23:31:27.049Z,6.30
2022-10-05T23:33:53.856Z,6.20
2022-10-05T23:36:27.334Z,5.50
2022-10-05T23:38:54.380Z,6.00
2022-10-05T23:41:21.785Z,6.50
2022-10-05T23:43:48.469Z,6.80
2022-10-05T23:46:15.473Z,5.90
2022-10-05T23:48:46.350Z,5.80
2022-10-05T23:51:13.552Z,6.70
2022-10-05T23:53:41.958Z,6.20
2022-10-05T23:56:12.326Z,6.20
2022-10-05T23:58:42.472Z,6.70
